Time;durP1;ratioP1;P1;durP2;ratioP2;P2;SDS_P1;SDS_P2;PMS_P1;PMS_P2;Temp;Humidity;BMP_temperature;BMP_pressure;BME280_temperature;BME280_humidity;BME280_pressure;Samples;Min_cycle;Max_cycle;Signal;HPM_P1;HPM_P2
2021/12/17 00:05:09;;;;;;;0.10;0.10;;;4.00;99.90;;;;;;5052440;28;20981;-69
2021/12/17 00:07:37;;;;;;;0.10;0.10;;;4.00;99.90;;;;;;5051399;28;20658;-69
2021/12/17 00:10:09;;;;;;;0.10;0.10;;;3.90;99.90;;;;;;5048700;28;20628;-69
2021/12/17 00:12:37;;;;;;;0.10;0.10;;;3.90;99.90;;;;;;5065311;28;20665;-69
2021/12/17 00:15:05;;;;;;;0.17;0.17;;;3.90;99.90;;;;;;5050429;28;21273;-68
2021/12/17 00:17:36;;;;;;;0.10;0.10;;;3.90;99.90;;;;;;5055601;28;20622;-71
2021/12/17 00:50:35;;;;;;;0.10;0.10;;;3.70;99.90;;;;;;5065763;28;20639;-68
2021/12/17 00:53:02;;;;;;;0.10;0.10;;;3.70;99.90;;;;;;5036310;28;21338;-69
2021/12/17 00:55:29;;;;;;;0.10;0.10;;;3.70;99.90;;;;;;5050899;28;20996;-68
2021/12/17 00:57:56;;;;;;;0.10;0.10;;;3.70;99.90;;;;;;5047203;28;20661;-69
2021/12/17 01:00:25;;;;;;;0.17;0.17;;;3.70;99.90;;;;;;5050117;28;20633;-68
2021/12/17 01:02:53;;;;;;;0.10;0.10;;;3.70;99.90;;;;;;5046138;28;20662;-68
2021/12/17 01:05:24;;;;;;;0.10;0.10;;;3.70;99.90;;;;;;5049265;28;20694;-68
2021/12/17 01:07:54;;;;;;;0.10;0.10;;;3.70;99.90;;;;;;5051106;28;20737;-70
2021/12/17 01:10:31;;;;;;;0.17;0.17;;;3.70;99.90;;;;;;5064385;28;21233;-70
2021/12/17 01:13:21;;;;;;;0.10;0.10;;;3.80;99.90;;;;;;5050924;28;20657;-71
2021/12/17 01:16:02;;;;;;;0.20;0.20;;;3.80;99.90;;;;;;5048406;28;20628;-70
2021/12/17 01:18:51;;;;;;;0.10;0.10;;;3.90;99.90;;;;;;5053311;28;20619;-70
2021/12/17 01:24:35;;;;;;;0.17;0.17;;;4.00;99.90;;;;;;5046809;28;20621;-69
2021/12/17 01:36:00;;;;;;;0.13;0.13;;;4.10;99.90;;;;;;5035698;28;20611;-68
2021/12/17 01:41:55;;;;;;;0.10;0.10;;;4.10;99.90;;;;;;5034445;28;20653;-69
2021/12/17 01:44:22;;;;;;;0.10;0.10;;;4.20;99.90;;;;;;5051195;28;20705;-68
2021/12/17 01:46:52;;;;;;;0.10;0.10;;;4.20;99.90;;;;;;5048302;28;20730;-70
2021/12/17 01:55:39;;;;;;;0.20;0.20;;;4.20;99.90;;;;;;5047652;28;20621;-68
2021/12/17 02:00:39;;;;;;;0.10;0.10;;;4.30;99.90;;;;;;5034181;28;20607;-68
2021/12/17 02:03:09;;;;;;;0.10;0.10;;;4.30;99.90;;;;;;5049623;28;20648;-70
2021/12/17 02:05:38;;;;;;;0.10;0.10;;;4.40;99.90;;;;;;5052493;28;20732;-70
2021/12/17 02:08:06;;;;;;;0.10;0.10;;;4.40;99.90;;;;;;5049208;28;20649;-68
2021/12/17 02:11:23;;;;;;;0.10;0.10;;;4.40;99.90;;;;;;5050876;28;20601;-69
2021/12/17 02:19:45;;;;;;;0.10;0.10;;;4.60;99.90;;;;;;5044434;28;20626;-69
2021/12/17 02:22:56;;;;;;;0.10;0.10;;;4.60;99.90;;;;;;5050660;28;20660;-69
2021/12/17 02:31:13;;;;;;;0.10;0.10;;;4.60;99.90;;;;;;5048078;28;20626;-69
2021/12/17 02:33:40;;;;;;;0.10;0.10;;;4.70;99.90;;;;;;5050420;28;20722;-70
2021/12/17 02:36:08;;;;;;;0.10;0.10;;;4.60;99.90;;;;;;5058869;28;20615;-69
2021/12/17 02:38:39;;;;;;;0.10;0.10;;;4.70;99.90;;;;;;5050754;28;20664;-69
2021/12/17 02:47:11;;;;;;;0.10;0.10;;;4.70;99.90;;;;;;5047921;28;20641;-69
2021/12/17 02:49:41;;;;;;;0.10;0.10;;;4.70;99.90;;;;;;5051222;28;20617;-69
2021/12/17 02:52:09;;;;;;;0.10;0.10;;;4.70;99.90;;;;;;5065606;28;20660;-69
2021/12/17 02:54:39;;;;;;;0.10;0.10;;;4.80;99.90;;;;;;5047279;28;20736;-68
2021/12/17 02:57:07;;;;;;;0.10;0.10;;;4.80;99.90;;;;;;5047724;28;20712;-71
2021/12/17 02:59:36;;;;;;;0.10;0.10;;;4.80;99.90;;;;;;5036184;28;20630;-69
2021/12/17 03:02:05;;;;;;;0.10;0.10;;;4.80;99.90;;;;;;5050398;28;20657;-68
2021/12/17 03:04:36;;;;;;;0.10;0.10;;;4.80;99.90;;;;;;5048260;28;20637;-69
2021/12/17 03:07:03;;;;;;;0.10;0.10;;;4.80;99.90;;;;;;5053399;28;20663;-69
2021/12/17 03:09:45;;;;;;;0.10;0.10;;;4.80;99.90;;;;;;5052775;28;20737;-69
2021/12/17 03:12:19;;;;;;;0.10;0.10;;;4.80;99.90;;;;;;5050964;28;20660;-69
2021/12/17 03:14:53;;;;;;;0.10;0.10;;;4.80;99.90;;;;;;5035958;28;20652;-69
2021/12/17 03:17:36;;;;;;;0.10;0.10;;;4.80;99.90;;;;;;5053329;28;20644;-68
2021/12/17 03:25:30;;;;;;;0.10;0.10;;;4.90;99.90;;;;;;5044508;28;20707;-69
2021/12/17 03:27:58;;;;;;;0.10;0.10;;;5.00;99.90;;;;;;5065082;28;20657;-69
2021/12/17 03:30:25;;;;;;;0.10;0.10;;;5.00;99.90;;;;;;5053271;28;20643;-69
2021/12/17 03:32:52;;;;;;;0.10;0.10;;;5.00;99.90;;;;;;5046984;28;20752;-69
2021/12/17 03:35:19;;;;;;;0.10;0.10;;;5.10;99.90;;;;;;5048430;28;20628;-70
2021/12/17 03:37:46;;;;;;;0.10;0.10;;;5.10;99.90;;;;;;5048660;28;20610;-69
2021/12/17 03:40:16;;;;;;;0.10;0.10;;;5.20;99.90;;;;;;5045665;28;20627;-68
2021/12/17 03:42:47;;;;;;;0.10;0.10;;;5.20;99.90;;;;;;5051755;28;20642;-70
2021/12/17 03:45:18;;;;;;;0.10;0.10;;;5.20;99.90;;;;;;5036180;28;20614;-69
2021/12/17 03:47:54;;;;;;;0.10;0.10;;;5.20;99.90;;;;;;5054270;28;20642;-71
2021/12/17 03:50:22;;;;;;;0.10;0.10;;;5.30;99.90;;;;;;5048357;28;20675;-68
2021/12/17 03:52:51;;;;;;;0.10;0.10;;;5.30;99.90;;;;;;5053830;28;20657;-70
2021/12/17 03:55:20;;;;;;;0.10;0.10;;;5.30;99.90;;;;;;5054385;28;20629;-70
2021/12/17 03:57:49;;;;;;;0.10;0.10;;;5.30;99.90;;;;;;5045965;28;20613;-69
2021/12/17 04:00:17;;;;;;;0.10;0.10;;;5.30;99.90;;;;;;5052511;28;20997;-70
2021/12/17 04:02:45;;;;;;;0.10;0.10;;;5.30;99.90;;;;;;5048201;28;20637;-70
2021/12/17 04:05:20;;;;;;;0.10;0.10;;;5.30;99.90;;;;;;5053151;28;20695;-68
2021/12/17 04:08:05;;;;;;;0.10;0.10;;;5.30;99.90;;;;;;5051040;28;20843;-68
2021/12/17 04:11:01;;;;;;;0.10;0.10;;;5.30;99.90;;;;;;5056448;28;20621;-69
2021/12/17 04:13:32;;;;;;;0.10;0.10;;;5.30;99.90;;;;;;5031346;28;20663;-69
2021/12/17 04:16:09;;;;;;;0.10;0.10;;;5.30;99.90;;;;;;5049168;28;20625;-69
2021/12/17 04:18:40;;;;;;;0.10;0.10;;;5.40;99.90;;;;;;5052032;28;20719;-70
2021/12/17 04:21:13;;;;;;;0.10;0.10;;;5.40;99.90;;;;;;5044675;28;20615;-69
2021/12/17 04:23:41;;;;;;;0.10;0.10;;;5.40;99.90;;;;;;5051227;28;20625;-70
2021/12/17 04:26:09;;;;;;;0.10;0.10;;;5.50;99.90;;;;;;5052141;28;20639;-69
2021/12/17 04:28:41;;;;;;;0.10;0.10;;;5.40;99.90;;;;;;5047336;28;20694;-69
2021/12/17 04:31:12;;;;;;;0.10;0.10;;;5.50;99.90;;;;;;5048851;28;20743;-68
2021/12/17 04:33:42;;;;;;;0.10;0.10;;;5.50;99.90;;;;;;5048388;28;20624;-68
2021/12/17 04:36:12;;;;;;;0.10;0.10;;;5.50;99.90;;;;;;5045620;28;20654;-68
2021/12/17 04:38:39;;;;;;;0.10;0.10;;;5.50;99.90;;;;;;5051205;28;20628;-69
2021/12/17 04:41:38;;;;;;;0.10;0.10;;;5.50;99.90;;;;;;5048038;28;20643;-68
2021/12/17 04:44:13;;;;;;;0.10;0.10;;;5.50;99.90;;;;;;5047293;28;20652;-68
2021/12/17 04:46:46;;;;;;;0.10;0.10;;;5.50;99.90;;;;;;5048119;28;20781;-68
2021/12/17 04:57:30;;;;;;;0.10;0.10;;;5.50;99.90;;;;;;5018297;28;20732;-68
2021/12/17 05:00:00;;;;;;;0.10;0.10;;;5.50;99.90;;;;;;5047117;28;20617;-68
2021/12/17 05:02:31;;;;;;;0.10;0.10;;;5.50;99.90;;;;;;5030787;28;20652;-69
2021/12/17 05:05:08;;;;;;;0.10;0.10;;;5.50;99.90;;;;;;5049043;28;20633;-68
2021/12/17 05:07:41;;;;;;;0.10;0.10;;;5.50;99.90;;;;;;5048876;28;20651;-68
2021/12/17 05:10:18;;;;;;;0.10;0.10;;;5.50;99.90;;;;;;5035476;28;20613;-70
2021/12/17 05:18:23;;;;;;;0.10;0.10;;;5.60;99.90;;;;;;5050596;28;20628;-69
2021/12/17 05:21:01;;;;;;;0.10;0.10;;;5.60;99.90;;;;;;5046683;28;20614;-68
2021/12/17 05:23:33;;;;;;;0.10;0.10;;;5.60;99.90;;;;;;5034682;28;20690;-69
2021/12/17 05:26:04;;;;;;;0.10;0.10;;;5.60;99.90;;;;;;5064753;28;20641;-69
2021/12/17 05:28:36;;;;;;;0.10;0.10;;;5.60;99.90;;;;;;5030591;28;20738;-68
2021/12/17 05:31:05;;;;;;;0.10;0.10;;;5.70;99.90;;;;;;5063031;28;20627;-68
2021/12/17 05:33:39;;;;;;;0.10;0.10;;;5.70;99.90;;;;;;5044755;28;20629;-71
2021/12/17 05:36:06;;;;;;;0.10;0.10;;;5.70;99.90;;;;;;5046524;28;20622;-68
2021/12/17 05:38:35;;;;;;;0.10;0.10;;;5.70;99.90;;;;;;5045814;28;20713;-70
2021/12/17 05:41:02;;;;;;;0.10;0.10;;;5.70;99.90;;;;;;5031523;28;20779;-72
2021/12/17 05:43:43;;;;;;;0.10;0.10;;;5.70;99.90;;;;;;5049754;28;20632;-70
2021/12/17 05:46:11;;;;;;;0.10;0.10;;;5.80;99.90;;;;;;5057215;28;20624;-70
2021/12/17 05:48:41;;;;;;;0.10;0.10;;;5.80;99.90;;;;;;5050654;28;20669;-72
2021/12/17 05:51:10;;;;;;;0.10;0.10;;;5.80;99.90;;;;;;5053811;28;20636;-74
2021/12/17 05:53:38;;;;;;;0.10;0.10;;;5.80;99.90;;;;;;5047351;28;20605;-69
2021/12/17 05:56:05;;;;;;;0.10;0.10;;;5.70;99.90;;;;;;5047861;28;20628;-69
2021/12/17 05:58:45;;;;;;;0.10;0.10;;;5.80;99.90;;;;;;5047897;28;20621;-69
2021/12/17 06:01:12;;;;;;;0.10;0.10;;;5.80;99.90;;;;;;5047130;28;20613;-74
2021/12/17 06:03:50;;;;;;;0.10;0.10;;;5.70;99.90;;;;;;5046910;28;20621;-70
2021/12/17 06:06:26;;;;;;;0.10;0.10;;;5.70;99.90;;;;;;5046075;28;20633;-70
2021/12/17 06:08:54;;;;;;;0.10;0.10;;;5.70;99.90;;;;;;5065864;28;20671;-72
2021/12/17 06:11:21;;;;;;;0.10;0.10;;;5.70;99.90;;;;;;5053045;28;20654;-71
2021/12/17 06:13:48;;;;;;;0.10;0.10;;;5.60;99.90;;;;;;5052117;28;20653;-71
2021/12/17 06:16:16;;;;;;;0.10;0.10;;;5.60;99.90;;;;;;5051337;28;20712;-71
2021/12/17 06:18:43;;;;;;;0.10;0.10;;;5.50;99.90;;;;;;5054619;28;20656;-73
2021/12/17 06:21:11;;;;;;;0.10;0.10;;;5.50;99.90;;;;;;5050663;28;20613;-70
2021/12/17 06:23:39;;;;;;;0.10;0.10;;;5.50;99.90;;;;;;5055685;28;20631;-72
2021/12/17 06:26:06;;;;;;;0.10;0.10;;;5.40;99.90;;;;;;5052105;28;20637;-73
2021/12/17 06:28:33;;;;;;;0.10;0.10;;;5.40;99.90;;;;;;5047871;28;20694;-70
2021/12/17 06:31:02;;;;;;;0.10;0.10;;;5.30;99.90;;;;;;5052204;28;20616;-72
2021/12/17 06:33:33;;;;;;;0.10;0.10;;;5.20;99.90;;;;;;5054293;28;20633;-72
2021/12/17 06:36:00;;;;;;;0.00;0.00;;;5.20;99.90;;;;;;5053535;28;20695;-69
2021/12/17 06:38:28;;;;;;;0.10;0.10;;;5.20;99.90;;;;;;5053275;28;20659;-71
2021/12/17 06:40:58;;;;;;;0.10;0.10;;;5.20;99.90;;;;;;5054358;28;20717;-72
2021/12/17 06:43:32;;;;;;;0.10;0.10;;;5.10;99.90;;;;;;5049422;28;20760;-72
2021/12/17 06:46:13;;;;;;;0.10;0.10;;;5.10;99.90;;;;;;5052447;28;20694;-72
2021/12/17 06:48:41;;;;;;;0.10;0.10;;;5.10;99.90;;;;;;5037426;28;20654;-71
2021/12/17 07:00:22;;;;;;;0.10;0.10;;;4.90;99.90;;;;;;5130237;27;21350;-70
2021/12/17 07:06:20;;;;;;;0.10;0.10;;;4.80;99.90;;;;;;5138709;27;20713;-70
2021/12/17 07:18:08;;;;;;;0.10;0.10;;;4.70;99.90;;;;;;5077107;28;20615;-70
2021/12/17 07:20:59;;;;;;;0.10;0.10;;;4.60;99.90;;;;;;5120189;27;20613;-69
2021/12/17 07:23:52;;;;;;;0.10;0.10;;;4.60;99.90;;;;;;5117108;27;20728;-69
2021/12/17 07:35:42;;;;;;;0.10;0.10;;;4.40;99.90;;;;;;5119729;27;20716;-68
2021/12/17 07:40:58;;;;;;;0.10;0.10;;;4.30;99.90;;;;;;5131336;27;20612;-72
2021/12/17 07:43:30;;;;;;;0.20;0.20;;;4.30;99.90;;;;;;5118434;27;20685;-69
2021/12/17 07:45:59;;;;;;;0.10;0.10;;;4.30;99.90;;;;;;5108835;27;20614;-73
2021/12/17 07:48:29;;;;;;;0.10;0.10;;;4.30;99.90;;;;;;5111100;27;20613;-71
2021/12/17 07:51:02;;;;;;;0.10;0.10;;;4.30;99.90;;;;;;5117221;27;20617;-69
2021/12/17 07:53:44;;;;;;;0.10;0.10;;;4.20;99.90;;;;;;5129511;27;20662;-69
2021/12/17 07:56:22;;;;;;;0.10;0.10;;;4.20;99.90;;;;;;5120196;27;20701;-69
2021/12/17 07:58:52;;;;;;;0.10;0.10;;;4.20;99.90;;;;;;5119742;27;20675;-70
2021/12/17 08:01:19;;;;;;;0.10;0.10;;;4.20;99.90;;;;;;5129709;27;20621;-68
2021/12/17 08:03:48;;;;;;;0.10;0.10;;;4.20;99.90;;;;;;5118603;27;20652;-69
2021/12/17 08:06:36;;;;;;;0.10;0.10;;;4.20;99.90;;;;;;5119139;27;20654;-70
2021/12/17 08:09:12;;;;;;;0.10;0.10;;;4.30;99.90;;;;;;5119140;27;20629;-69
2021/12/17 08:11:41;;;;;;;0.10;0.10;;;4.30;99.90;;;;;;5104886;27;20653;-71
2021/12/17 08:14:13;;;;;;;0.10;0.10;;;4.40;99.90;;;;;;5104106;27;20621;-71
2021/12/17 08:16:45;;;;;;;0.10;0.10;;;4.50;99.90;;;;;;5104277;27;20622;-70
2021/12/17 08:24:55;;;;;;;0.10;0.10;;;4.60;99.90;;;;;;5114612;27;20640;-72
2021/12/17 08:27:29;;;;;;;0.10;0.10;;;4.70;99.90;;;;;;5104637;27;20620;-69
2021/12/17 08:32:45;;;;;;;0.10;0.10;;;4.90;99.90;;;;;;5101792;27;20729;-70
2021/12/17 08:35:14;;;;;;;0.10;0.10;;;5.00;99.90;;;;;;5104874;27;20626;-69
2021/12/17 08:37:43;;;;;;;0.10;0.10;;;5.10;99.90;;;;;;5104167;27;20629;-69
2021/12/17 08:40:11;;;;;;;0.10;0.10;;;5.20;99.90;;;;;;5103744;27;20682;-69
2021/12/17 08:42:43;;;;;;;0.10;0.10;;;5.30;99.90;;;;;;5104310;27;20650;-71
2021/12/17 08:45:11;;;;;;;0.10;0.10;;;5.40;99.90;;;;;;5103800;27;20748;-69
2021/12/17 08:47:47;;;;;;;0.10;0.10;;;5.50;99.90;;;;;;5122921;27;20618;-70
2021/12/17 08:50:19;;;;;;;0.10;0.10;;;5.60;99.90;;;;;;5104877;27;20601;-69
2021/12/17 08:52:49;;;;;;;0.10;0.10;;;5.60;99.90;;;;;;5097769;27;20653;-68
2021/12/17 08:55:17;;;;;;;0.10;0.10;;;5.80;99.90;;;;;;5103604;27;21196;-67
2021/12/17 08:57:45;;;;;;;0.10;0.10;;;5.80;99.90;;;;;;5094748;27;20618;-68
2021/12/17 09:00:14;;;;;;;0.10;0.10;;;5.90;99.90;;;;;;5102797;27;20669;-70
2021/12/17 09:03:02;;;;;;;0.10;0.10;;;6.00;99.90;;;;;;5106480;27;20702;-71
2021/12/17 09:05:57;;;;;;;0.10;0.10;;;6.10;99.90;;;;;;5105397;27;20630;-69
2021/12/17 09:08:33;;;;;;;0.07;0.07;;;6.10;99.90;;;;;;5103170;27;20620;-69
2021/12/17 09:11:00;;;;;;;0.10;0.10;;;6.20;99.90;;;;;;5101403;27;20626;-69
2021/12/17 09:13:44;;;;;;;0.10;0.10;;;6.20;99.90;;;;;;5102614;27;20602;-72
2021/12/17 09:16:13;;;;;;;0.10;0.10;;;6.20;99.90;;;;;;5103876;27;21859;-69
2021/12/17 09:18:40;;;;;;;0.10;0.10;;;6.30;99.90;;;;;;5095875;27;20642;-70
2021/12/17 09:21:21;;;;;;;0.10;0.10;;;6.30;99.90;;;;;;5101394;28;20694;-68
2021/12/17 09:24:25;;;;;;;0.10;0.10;;;6.40;99.90;;;;;;5032178;28;20616;-68
2021/12/17 09:27:17;;;;;;;0.10;0.10;;;6.40;99.90;;;;;;5120019;27;20612;-69
2021/12/17 09:30:18;;;;;;;0.10;0.10;;;6.50;99.90;;;;;;5095733;27;20625;-70
2021/12/17 09:32:46;;;;;;;0.03;0.03;;;6.60;99.90;;;;;;5122411;27;20641;-68
2021/12/17 09:35:14;;;;;;;0.10;0.10;;;6.60;99.90;;;;;;5121970;27;20610;-69
2021/12/17 09:37:41;;;;;;;0.10;0.10;;;6.60;99.90;;;;;;5094830;27;20610;-69
2021/12/17 09:40:12;;;;;;;0.10;0.10;;;6.70;99.90;;;;;;5121595;27;20668;-67
2021/12/17 09:42:39;;;;;;;0.10;0.10;;;6.70;99.90;;;;;;5097206;27;21095;-70
2021/12/17 09:45:07;;;;;;;0.10;0.10;;;6.80;99.90;;;;;;5102596;27;20610;-68
2021/12/17 09:47:34;;;;;;;0.10;0.10;;;6.80;99.90;;;;;;5118718;27;20602;-71
2021/12/17 09:50:01;;;;;;;0.10;0.10;;;6.80;99.90;;;;;;5096806;27;20618;-68
2021/12/17 09:52:28;;;;;;;0.10;0.10;;;6.80;99.90;;;;;;5104471;27;20646;-68
2021/12/17 09:54:57;;;;;;;0.10;0.10;;;6.80;99.90;;;;;;5093955;27;20683;-71
2021/12/17 09:57:26;;;;;;;0.03;0.03;;;6.80;99.90;;;;;;5102728;27;20618;-70
2021/12/17 09:59:53;;;;;;;0.10;0.10;;;6.80;99.90;;;;;;5103029;27;20754;-69
2021/12/17 10:02:20;;;;;;;0.10;0.10;;;6.90;99.90;;;;;;5102583;27;21026;-69
2021/12/17 10:04:47;;;;;;;0.10;0.10;;;6.90;99.90;;;;;;5101322;27;20707;-70
2021/12/17 10:07:20;;;;;;;0.10;0.10;;;6.90;99.90;;;;;;5102174;27;20626;-70
2021/12/17 10:09:49;;;;;;;0.10;0.10;;;6.90;99.90;;;;;;5123091;27;20602;-69
2021/12/17 10:12:16;;;;;;;0.10;0.10;;;6.90;99.90;;;;;;5096954;27;20666;-68
2021/12/17 10:15:08;;;;;;;0.10;0.10;;;6.90;99.90;;;;;;5102203;27;20631;-67
2021/12/17 10:17:35;;;;;;;0.10;0.10;;;7.00;99.90;;;;;;5101546;27;20632;-70
2021/12/17 10:20:06;;;;;;;0.10;0.10;;;7.00;99.90;;;;;;5100818;27;20664;-68
2021/12/17 10:22:34;;;;;;;0.00;0.00;;;7.00;99.90;;;;;;5101869;27;20655;-70
2021/12/17 10:25:04;;;;;;;0.10;0.10;;;7.00;99.90;;;;;;5102165;27;20720;-70
2021/12/17 10:27:34;;;;;;;0.10;0.10;;;6.90;99.90;;;;;;5103188;27;20618;-70
2021/12/17 10:30:11;;;;;;;0.10;0.10;;;6.90;99.90;;;;;;5101889;27;20619;-69
2021/12/17 10:32:40;;;;;;;0.10;0.10;;;6.90;99.90;;;;;;5123329;27;20641;-71
2021/12/17 10:35:10;;;;;;;0.10;0.10;;;7.00;99.90;;;;;;5112901;27;20618;-67
2021/12/17 10:37:41;;;;;;;0.10;0.10;;;7.00;99.90;;;;;;5095800;27;20671;-71
2021/12/17 10:40:17;;;;;;;0.10;0.10;;;7.00;99.90;;;;;;5119810;27;20649;-67
2021/12/17 10:42:52;;;;;;;0.10;0.10;;;7.00;99.90;;;;;;5108762;27;20663;-68
2021/12/17 10:45:26;;;;;;;0.10;0.10;;;7.00;99.90;;;;;;5117589;27;20641;-67
2021/12/17 10:48:20;;;;;;;0.10;0.10;;;7.00;99.90;;;;;;5095446;27;20627;-69
2021/12/17 10:50:47;;;;;;;0.10;0.10;;;7.00;99.90;;;;;;5096183;27;20617;-68
2021/12/17 10:53:15;;;;;;;0.10;0.10;;;7.10;99.90;;;;;;5102557;27;20669;-70
2021/12/17 10:55:45;;;;;;;0.10;0.10;;;7.10;99.90;;;;;;5094195;28;20690;-70
2021/12/17 10:58:12;;;;;;;0.00;0.00;;;7.10;99.90;;;;;;5120429;28;20630;-69
2021/12/17 11:00:47;;;;;;;0.10;0.10;;;7.10;99.90;;;;;;5099929;28;20793;-67
2021/12/17 11:03:14;;;;;;;0.10;0.10;;;7.20;99.90;;;;;;5121905;28;20640;-68
2021/12/17 11:05:41;;;;;;;0.00;0.00;;;7.20;99.90;;;;;;5102658;28;20618;-66
2021/12/17 11:08:28;;;;;;;0.10;0.10;;;7.20;99.90;;;;;;5103066;28;20657;-69
2021/12/17 11:10:59;;;;;;;0.00;0.00;;;7.30;99.90;;;;;;5093195;28;20653;-67
2021/12/17 11:13:27;;;;;;;0.10;0.10;;;7.30;99.90;;;;;;5093710;28;20665;-67
2021/12/17 11:15:55;;;;;;;0.10;0.10;;;7.30;99.90;;;;;;5102424;28;20623;-68
2021/12/17 11:18:25;;;;;;;0.10;0.10;;;7.40;99.90;;;;;;5102784;28;21038;-69
2021/12/17 11:20:55;;;;;;;0.00;0.00;;;7.40;99.90;;;;;;5098693;28;20654;-70
2021/12/17 11:23:23;;;;;;;0.10;0.10;;;7.40;99.90;;;;;;5110255;28;20710;-67
2021/12/17 11:25:53;;;;;;;0.10;0.10;;;7.40;99.90;;;;;;5103137;28;20618;-66
2021/12/17 11:28:21;;;;;;;0.00;0.00;;;7.40;99.90;;;;;;5121038;28;20594;-68
2021/12/17 11:30:49;;;;;;;0.10;0.10;;;7.50;99.90;;;;;;5109015;28;20667;-68
2021/12/17 11:33:18;;;;;;;0.10;0.10;;;7.50;99.90;;;;;;5117629;28;21277;-69
2021/12/17 11:35:47;;;;;;;0.10;0.10;;;7.50;99.90;;;;;;5101923;28;20762;-68
2021/12/17 11:38:18;;;;;;;0.10;0.10;;;7.50;99.90;;;;;;5119258;28;21210;-71
2021/12/17 11:40:49;;;;;;;0.00;0.00;;;7.60;99.90;;;;;;5101149;28;20642;-67
2021/12/17 11:43:50;;;;;;;0.10;0.10;;;7.60;99.90;;;;;;5099213;28;20654;-69
2021/12/17 11:46:22;;;;;;;0.00;0.00;;;7.60;99.90;;;;;;5105486;27;20633;-70
2021/12/17 11:48:53;;;;;;;0.00;0.00;;;7.60;99.90;;;;;;5122865;27;20705;-68
2021/12/17 11:51:24;;;;;;;0.10;0.10;;;7.60;99.90;;;;;;5115610;27;20617;-69
2021/12/17 11:53:59;;;;;;;0.10;0.10;;;7.60;99.90;;;;;;5107829;27;20637;-70
2021/12/17 11:56:35;;;;;;;0.10;0.10;;;7.70;99.90;;;;;;5099688;27;20675;-69
2021/12/17 11:59:04;;;;;;;0.10;0.10;;;7.70;99.90;;;;;;5123912;27;20679;-68
2021/12/17 12:02:05;;;;;;;0.10;0.10;;;7.70;99.90;;;;;;5099750;27;20760;-66
2021/12/17 12:04:51;;;;;;;0.10;0.10;;;7.70;99.90;;;;;;5033628;28;20681;-67
2021/12/17 12:07:31;;;;;;;0.10;0.10;;;7.80;99.90;;;;;;5068427;28;20663;-66
2021/12/17 12:10:01;;;;;;;0.10;0.10;;;7.80;99.90;;;;;;5079161;27;20629;-66
2021/12/17 12:12:51;;;;;;;0.10;0.10;;;7.90;99.90;;;;;;5105501;27;20649;-68
2021/12/17 12:15:35;;;;;;;0.10;0.10;;;8.00;99.90;;;;;;5104396;27;20633;-67
2021/12/17 12:18:19;;;;;;;0.10;0.10;;;8.00;99.90;;;;;;5110537;27;20626;-66
2021/12/17 12:20:58;;;;;;;0.10;0.10;;;8.10;99.90;;;;;;5104181;27;20660;-67
2021/12/17 12:23:47;;;;;;;0.10;0.10;;;8.10;99.90;;;;;;5123185;27;20661;-67
2021/12/17 12:26:27;;;;;;;0.10;0.10;;;8.20;99.90;;;;;;5116792;27;20614;-68
2021/12/17 12:29:03;;;;;;;0.10;0.10;;;8.20;99.90;;;;;;5104258;27;21252;-70
2021/12/17 12:31:56;;;;;;;0.00;0.00;;;8.20;99.90;;;;;;5104683;27;20648;-68
2021/12/17 12:34:33;;;;;;;0.10;0.10;;;8.20;99.90;;;;;;5078528;27;20622;-69
2021/12/17 12:37:03;;;;;;;0.10;0.10;;;8.20;99.90;;;;;;5116072;27;20656;-68
2021/12/17 12:39:32;;;;;;;0.10;0.10;;;8.20;99.90;;;;;;5097081;27;20668;-68
2021/12/17 12:42:03;;;;;;;0.10;0.10;;;8.10;99.90;;;;;;5117865;27;20662;-68
2021/12/17 12:45:13;;;;;;;0.10;0.10;;;8.10;99.90;;;;;;5105204;27;20622;-70
2021/12/17 12:47:45;;;;;;;0.10;0.10;;;8.10;99.90;;;;;;5111444;27;20619;-69
2021/12/17 12:50:13;;;;;;;0.10;0.10;;;8.00;99.90;;;;;;5096159;27;20630;-69
2021/12/17 12:52:44;;;;;;;0.10;0.10;;;8.00;99.90;;;;;;5104273;27;20784;-67
2021/12/17 12:55:18;;;;;;;0.10;0.10;;;7.90;99.90;;;;;;5123174;27;20610;-69
2021/12/17 12:57:47;;;;;;;0.10;0.10;;;7.80;99.90;;;;;;5095928;27;20621;-68
2021/12/17 13:00:18;;;;;;;0.10;0.10;;;7.80;99.90;;;;;;5106317;27;20634;-69
2021/12/17 13:02:49;;;;;;;0.10;0.10;;;7.80;99.90;;;;;;5104515;27;21022;-68
2021/12/17 13:05:17;;;;;;;0.00;0.00;;;7.80;99.90;;;;;;5122220;27;20652;-70
2021/12/17 13:07:48;;;;;;;0.00;0.00;;;7.80;99.90;;;;;;5122997;27;20719;-66
2021/12/17 13:10:18;;;;;;;0.10;0.10;;;7.80;99.90;;;;;;5105203;27;20771;-68
2021/12/17 13:12:53;;;;;;;0.00;0.00;;;7.80;99.90;;;;;;5124313;27;20670;-68
2021/12/17 13:15:39;;;;;;;0.10;0.10;;;7.80;99.90;;;;;;5113710;27;20625;-68
2021/12/17 13:21:05;;;;;;;0.10;0.10;;;7.80;99.90;;;;;;5111820;27;20726;-69
2021/12/17 13:23:38;;;;;;;0.00;0.00;;;7.80;99.90;;;;;;5091836;27;20647;-68
2021/12/17 13:26:07;;;;;;;0.10;0.10;;;7.80;99.90;;;;;;5104029;27;20629;-67
2021/12/17 13:29:06;;;;;;;0.03;0.03;;;7.80;99.90;;;;;;5105692;27;20664;-67
2021/12/17 13:31:36;;;;;;;0.10;0.10;;;7.80;99.90;;;;;;5121718;27;20640;-68
2021/12/17 13:34:11;;;;;;;0.00;0.00;;;7.80;99.90;;;;;;5117713;27;20642;-67
2021/12/17 13:36:44;;;;;;;0.00;0.00;;;7.80;99.90;;;;;;5102817;27;20616;-67
2021/12/17 13:39:12;;;;;;;0.10;0.10;;;7.80;99.90;;;;;;5112851;27;20633;-67
2021/12/17 13:41:42;;;;;;;0.10;0.10;;;7.80;99.90;;;;;;5102214;27;20687;-68
2021/12/17 13:44:25;;;;;;;0.10;0.10;;;7.80;99.90;;;;;;5102540;27;20614;-68
2021/12/17 13:46:52;;;;;;;0.10;0.10;;;7.70;99.90;;;;;;5121728;27;20610;-67
2021/12/17 13:49:21;;;;;;;0.10;0.10;;;7.70;99.90;;;;;;5103751;27;20652;-67
2021/12/17 13:51:48;;;;;;;0.10;0.10;;;7.60;99.90;;;;;;5094843;27;20650;-67
2021/12/17 13:54:16;;;;;;;0.10;0.10;;;7.60;99.90;;;;;;5103127;27;20634;-67
2021/12/17 13:56:43;;;;;;;0.10;0.10;;;7.50;99.90;;;;;;5113032;27;20628;-66
2021/12/17 13:59:10;;;;;;;0.10;0.10;;;7.50;99.90;;;;;;5095713;27;20626;-67
2021/12/17 14:01:38;;;;;;;0.10;0.10;;;7.50;99.90;;;;;;5094133;27;20743;-67
2021/12/17 14:04:14;;;;;;;0.10;0.10;;;7.50;99.90;;;;;;5102273;27;20637;-67
2021/12/17 14:06:51;;;;;;;0.00;0.00;;;7.40;99.90;;;;;;5099489;27;20622;-67
2021/12/17 14:09:21;;;;;;;0.10;0.10;;;7.40;99.90;;;;;;5095335;27;20609;-66
2021/12/17 14:11:48;;;;;;;0.10;0.10;;;7.40;99.90;;;;;;5101857;27;20646;-67
2021/12/17 14:14:27;;;;;;;0.00;0.00;;;7.30;99.90;;;;;;5100619;27;20684;-66
2021/12/17 14:16:58;;;;;;;0.10;0.10;;;7.30;99.90;;;;;;5119746;27;20656;-67
2021/12/17 14:19:42;;;;;;;0.10;0.10;;;7.30;99.90;;;;;;5104056;27;20618;-67
2021/12/17 14:22:28;;;;;;;0.10;0.10;;;7.20;99.90;;;;;;5097603;27;20770;-67
2021/12/17 14:24:57;;;;;;;0.10;0.10;;;7.10;99.90;;;;;;5095688;27;21011;-67
2021/12/17 14:27:43;;;;;;;0.10;0.10;;;7.10;99.90;;;;;;5099733;27;20610;-66
2021/12/17 14:30:12;;;;;;;0.00;0.00;;;7.00;99.90;;;;;;5098589;27;20625;-66
2021/12/17 14:32:44;;;;;;;0.10;0.10;;;7.00;99.90;;;;;;5089149;27;20655;-66
2021/12/17 14:35:11;;;;;;;0.10;0.10;;;7.00;99.90;;;;;;5099877;27;20689;-67
2021/12/17 14:37:50;;;;;;;0.10;0.10;;;7.00;99.90;;;;;;5102319;27;20614;-67
2021/12/17 14:40:26;;;;;;;0.10;0.10;;;7.00;99.90;;;;;;5100104;28;20657;-66
2021/12/17 14:42:57;;;;;;;0.10;0.10;;;7.00;99.90;;;;;;5111465;27;20658;-67
2021/12/17 14:45:33;;;;;;;0.10;0.10;;;7.00;99.90;;;;;;5101198;27;20715;-67
2021/12/17 14:48:15;;;;;;;0.10;0.10;;;7.00;99.90;;;;;;5096413;27;20625;-67
2021/12/17 15:02:38;;;;;;;0.10;0.10;;;7.00;99.90;;;;;;5103595;28;20671;-67
2021/12/17 15:05:05;;;;;;;0.10;0.10;;;7.00;99.90;;;;;;5101500;28;20713;-67
2021/12/17 15:07:33;;;;;;;0.00;0.00;;;7.00;99.90;;;;;;5101247;28;20618;-67
2021/12/17 15:10:03;;;;;;;0.10;0.10;;;7.00;99.90;;;;;;5120097;28;20609;-67
2021/12/17 15:12:39;;;;;;;0.10;0.10;;;7.00;99.90;;;;;;5098005;28;21245;-67
2021/12/17 15:15:15;;;;;;;0.00;0.00;;;7.00;99.90;;;;;;5112071;28;20686;-67
2021/12/17 15:17:44;;;;;;;0.10;0.10;;;6.90;99.90;;;;;;5111643;28;20626;-66
2021/12/17 15:20:12;;;;;;;0.10;0.10;;;6.90;99.90;;;;;;5103857;27;20647;-67
2021/12/17 15:22:41;;;;;;;0.10;0.10;;;6.90;99.90;;;;;;5106671;27;20661;-68
2021/12/17 15:25:12;;;;;;;0.00;0.00;;;6.90;99.90;;;;;;5124872;27;20609;-67
2021/12/17 15:27:41;;;;;;;0.00;0.00;;;6.90;99.90;;;;;;5108441;27;20725;-67
2021/12/17 15:30:11;;;;;;;0.10;0.10;;;7.00;99.90;;;;;;5104795;27;20740;-67
2021/12/17 15:32:38;;;;;;;0.10;0.10;;;7.00;99.90;;;;;;5101784;27;20649;-67
2021/12/17 15:35:06;;;;;;;0.10;0.10;;;7.00;99.90;;;;;;5104726;27;20663;-67
2021/12/17 15:37:33;;;;;;;0.10;0.10;;;7.00;99.90;;;;;;5106498;27;20712;-67
2021/12/17 15:40:00;;;;;;;0.10;0.10;;;7.00;99.90;;;;;;5106339;27;20618;-67
2021/12/17 15:42:28;;;;;;;0.10;0.10;;;7.00;99.90;;;;;;5107656;27;20701;-67
2021/12/17 15:44:55;;;;;;;0.10;0.10;;;7.00;99.90;;;;;;5104911;27;21273;-67
2021/12/17 15:47:22;;;;;;;0.10;0.10;;;7.00;99.90;;;;;;5105966;27;20621;-67
2021/12/17 15:49:48;;;;;;;0.10;0.10;;;7.00;99.90;;;;;;5105709;27;20724;-67
2021/12/17 15:52:15;;;;;;;0.10;0.10;;;7.00;99.90;;;;;;5104431;27;21330;-67
2021/12/17 15:54:43;;;;;;;0.10;0.10;;;7.00;99.90;;;;;;5105857;27;20641;-67
2021/12/17 15:57:11;;;;;;;0.10;0.10;;;7.00;99.90;;;;;;5125444;27;20662;-67
2021/12/17 15:59:40;;;;;;;0.10;0.10;;;7.00;99.90;;;;;;5125550;27;20724;-66